Time;durP1;ratioP1;P1;durP2;ratioP2;P2;SDS_P1;SDS_P2;PMS_P1;PMS_P2;Temp;Humidity;BMP_temperature;BMP_pressure;BME280_temperature;BME280_humidity;BME280_pressure;Samples;Min_cycle;Max_cycle;Signal;HPM_P1;HPM_P2
2023/03/11 00:01:56;;;;;;;;;11.25;5.00;;;;;;;;5028324;28;8965;-70
2023/03/11 00:04:21;;;;;;;;;4.50;3.00;;;;;;;;5013236;28;8826;-70
2023/03/11 00:06:46;;;;;;;;;6.50;4.00;;;;;;;;5013272;28;8802;-70
2023/03/11 00:09:11;;;;;;;;;9.75;6.00;;;;;;;;5013049;28;8798;-69
2023/03/11 00:11:37;;;;;;;;;10.00;4.00;;;;;;;;5012945;28;8838;-68
2023/03/11 00:14:02;;;;;;;;;4.25;4.00;;;;;;;;5013167;28;8818;-68
2023/03/11 00:16:27;;;;;;;;;6.50;5.75;;;;;;;;5012941;28;8821;-70
2023/03/11 00:18:52;;;;;;;;;8.50;7.50;;;;;;;;5011705;28;8914;-69
2023/03/11 00:21:19;;;;;;;;;8.75;4.25;;;;;;;;5012896;28;8965;-69
2023/03/11 00:23:45;;;;;;;;;5.50;4.00;;;;;;;;5013467;28;8810;-69
2023/03/11 00:26:13;;;;;;;;;7.00;4.50;;;;;;;;5011752;28;11553;-69
2023/03/11 00:28:39;;;;;;;;;5.25;5.25;;;;;;;;5011409;28;11525;-69
2023/03/11 00:31:04;;;;;;;;;12.00;5.75;;;;;;;;5012969;28;11629;-69
2023/03/11 00:33:30;;;;;;;;;9.50;4.75;;;;;;;;5011670;28;8849;-69
2023/03/11 00:35:55;;;;;;;;;6.50;4.25;;;;;;;;5013200;28;9404;-69
2023/03/11 00:38:20;;;;;;;;;8.75;4.00;;;;;;;;5019713;28;8826;-69
2023/03/11 00:40:46;;;;;;;;;7.00;4.50;;;;;;;;5013177;28;8834;-69
2023/03/11 00:43:12;;;;;;;;;4.75;4.00;;;;;;;;5012762;28;8918;-68
2023/03/11 00:45:37;;;;;;;;;5.75;4.00;;;;;;;;5012669;28;8806;-68
2023/03/11 00:48:03;;;;;;;;;4.25;1.50;;;;;;;;5012606;28;8845;-69
2023/03/11 00:50:39;;;;;;;;;7.75;4.50;;;;;;;;5012417;28;8834;-70
2023/03/11 00:53:05;;;;;;;;;11.50;4.00;;;;;;;;5012655;28;8803;-69
2023/03/11 00:55:31;;;;;;;;;6.50;2.00;;;;;;;;5012599;28;11540;-69
2023/03/11 00:58:00;;;;;;;;;10.50;3.00;;;;;;;;5012459;28;8945;-69
2023/03/11 01:00:26;;;;;;;;;5.00;2.00;;;;;;;;5011018;28;11521;-69
2023/03/11 01:02:52;;;;;;;;;6.00;4.25;;;;;;;;5011797;28;11466;-68
2023/03/11 01:05:21;;;;;;;;;4.00;2.00;;;;;;;;5012477;28;11522;-69
2023/03/11 01:07:47;;;;;;;;;6.00;2.50;;;;;;;;5012025;28;12292;-69
2023/03/11 01:10:12;;;;;;;;;3.25;2.00;;;;;;;;5012123;28;11581;-69
2023/03/11 01:12:37;;;;;;;;;4.75;4.75;;;;;;;;5012283;28;8813;-68
2023/03/11 01:15:06;;;;;;;;;7.00;3.00;;;;;;;;5012175;28;8868;-68
2023/03/11 01:17:31;;;;;;;;;3.25;1.50;;;;;;;;5010513;28;8848;-69
2023/03/11 01:19:56;;;;;;;;;4.00;2.00;;;;;;;;5011968;28;11509;-69
2023/03/11 01:22:22;;;;;;;;;4.00;4.00;;;;;;;;5027696;28;8826;-70
2023/03/11 01:24:47;;;;;;;;;4.00;4.00;;;;;;;;5011960;28;8830;-70
2023/03/11 01:27:12;;;;;;;;;8.50;3.00;;;;;;;;5011812;28;8799;-69
2023/03/11 01:29:38;;;;;;;;;4.25;2.00;;;;;;;;5011670;28;8838;-68
2023/03/11 01:32:03;;;;;;;;;4.00;4.00;;;;;;;;5012029;28;8803;-68
2023/03/11 01:34:28;;;;;;;;;2.50;2.50;;;;;;;;5011816;28;9603;-69
2023/03/11 01:36:54;;;;;;;;;4.75;2.00;;;;;;;;5011858;28;8791;-68
2023/03/11 01:39:19;;;;;;;;;5.25;2.00;;;;;;;;5011973;28;8873;-69
2023/03/11 01:41:44;;;;;;;;;4.75;3.75;;;;;;;;5011899;28;8782;-69
2023/03/11 01:44:12;;;;;;;;;3.00;1.25;;;;;;;;5011935;28;8805;-69
2023/03/11 01:46:52;;;;;;;;;6.00;1.00;;;;;;;;5011624;28;9571;-69
2023/03/11 01:49:19;;;;;;;;;6.50;3.00;;;;;;;;5011566;28;11480;-69
2023/03/11 01:51:47;;;;;;;;;4.50;4.00;;;;;;;;5011670;28;11492;-69
2023/03/11 01:54:15;;;;;;;;;6.50;3.50;;;;;;;;5011517;28;11509;-69
2023/03/11 01:56:41;;;;;;;;;4.00;1.75;;;;;;;;5011450;28;11515;-69
2023/03/11 01:59:07;;;;;;;;;2.00;2.00;;;;;;;;5011281;28;12323;-69
2023/03/11 02:01:33;;;;;;;;;6.00;3.00;;;;;;;;5011564;28;11512;-69
2023/03/11 02:03:58;;;;;;;;;11.00;4.00;;;;;;;;5011306;28;11486;-68
2023/03/11 02:06:24;;;;;;;;;8.00;3.50;;;;;;;;5011390;28;9567;-69
2023/03/11 02:08:49;;;;;;;;;4.50;2.00;;;;;;;;5011248;28;8791;-68
2023/03/11 02:11:23;;;;;;;;;6.50;2.00;;;;;;;;5011206;28;8954;-69
2023/03/11 02:13:49;;;;;;;;;2.00;2.00;;;;;;;;5010305;28;8814;-69
2023/03/11 02:16:15;;;;;;;;;7.00;1.50;;;;;;;;5011167;28;11472;-70
2023/03/11 02:18:41;;;;;;;;;2.50;1.50;;;;;;;;5010858;28;11505;-70
2023/03/11 02:21:20;;;;;;;;;6.50;1.50;;;;;;;;5011022;28;8834;-70
2023/03/11 02:24:03;;;;;;;;;9.25;4.25;;;;;;;;5037933;23;11656;-73
2023/03/11 02:26:36;;;;;;;;;4.25;4.25;;;;;;;;5030022;28;11482;-73
2023/03/11 02:29:03;;;;;;;;;4.50;3.00;;;;;;;;5030540;28;11467;-73
2023/03/11 02:31:29;;;;;;;;;5.00;3.00;;;;;;;;5030331;28;11505;-73
2023/03/11 02:33:56;;;;;;;;;1.75;1.25;;;;;;;;5030412;28;11514;-73
2023/03/11 02:36:31;;;;;;;;;3.00;1.00;;;;;;;;5030495;28;11479;-73
2023/03/11 02:38:56;;;;;;;;;6.00;2.00;;;;;;;;5045443;28;11457;-72
2023/03/11 02:41:22;;;;;;;;;1.75;1.75;;;;;;;;5030123;28;11519;-73
2023/03/11 02:43:47;;;;;;;;;5.50;2.50;;;;;;;;5030144;28;8857;-73
2023/03/11 02:46:13;;;;;;;;;3.25;1.00;;;;;;;;5030347;28;8903;-82
2023/03/11 02:48:39;;;;;;;;;4.00;4.00;;;;;;;;5030219;28;8818;-73
2023/03/11 02:51:04;;;;;;;;;8.00;3.00;;;;;;;;5030123;28;11497;-72
2023/03/11 02:53:32;;;;;;;;;10.50;4.00;;;;;;;;5045231;28;8865;-73
2023/03/11 02:55:57;;;;;;;;;2.00;2.00;;;;;;;;5030436;28;8791;-73
2023/03/11 02:58:22;;;;;;;;;6.25;3.00;;;;;;;;5033322;28;11492;-74
2023/03/11 03:00:48;;;;;;;;;7.00;2.75;;;;;;;;5030012;28;8807;-74
2023/03/11 03:03:13;;;;;;;;;4.50;2.25;;;;;;;;5030066;28;8831;-73
2023/03/11 03:05:38;;;;;;;;;5.00;2.00;;;;;;;;5029956;28;8818;-72
2023/03/11 03:08:04;;;;;;;;;2.00;0.75;;;;;;;;5029831;28;8787;-73
2023/03/11 03:10:29;;;;;;;;;4.50;1.00;;;;;;;;5029909;28;8819;-73
2023/03/11 03:12:54;;;;;;;;;4.00;0.75;;;;;;;;5029884;28;8823;-73
2023/03/11 03:15:20;;;;;;;;;3.00;2.00;;;;;;;;5030075;28;8796;-73
2023/03/11 03:17:45;;;;;;;;;5.50;0.00;;;;;;;;5044834;28;8819;-74
2023/03/11 03:20:12;;;;;;;;;7.25;2.00;;;;;;;;5029851;28;8842;-73
2023/03/11 03:22:38;;;;;;;;;2.50;2.00;;;;;;;;5030048;28;8772;-73
2023/03/11 03:25:04;;;;;;;;;6.25;3.00;;;;;;;;5029931;28;11658;-72
2023/03/11 03:27:30;;;;;;;;;6.25;2.75;;;;;;;;5045297;28;8804;-73
2023/03/11 03:29:55;;;;;;;;;8.25;2.00;;;;;;;;5029638;28;11510;-73
2023/03/11 03:32:20;;;;;;;;;0.50;0.00;;;;;;;;5029633;28;8776;-73
2023/03/11 03:34:45;;;;;;;;;5.00;2.75;;;;;;;;5028339;28;8804;-73
2023/03/11 03:37:11;;;;;;;;;5.25;2.75;;;;;;;;5029415;28;8812;-74
2023/03/11 03:39:36;;;;;;;;;2.75;1.50;;;;;;;;5029511;28;8962;-73
2023/03/11 03:42:01;;;;;;;;;2.00;1.25;;;;;;;;5029143;28;8816;-74
2023/03/11 03:44:26;;;;;;;;;1.25;1.25;;;;;;;;5029417;28;9544;-73
2023/03/11 03:46:52;;;;;;;;;5.75;2.00;;;;;;;;5029482;28;9076;-73
2023/03/11 03:49:17;;;;;;;;;3.00;2.75;;;;;;;;5029782;28;8788;-74
2023/03/11 03:51:42;;;;;;;;;4.00;1.25;;;;;;;;5029338;28;8968;-74
2023/03/11 03:54:07;;;;;;;;;5.25;1.25;;;;;;;;5044620;28;8804;-74
2023/03/11 03:56:33;;;;;;;;;3.50;2.00;;;;;;;;5029639;28;8779;-74
2023/03/11 03:58:58;;;;;;;;;3.50;2.00;;;;;;;;5030338;28;8926;-75
2023/03/11 04:01:23;;;;;;;;;3.50;2.50;;;;;;;;5030154;28;8919;-74
2023/03/11 04:03:48;;;;;;;;;3.00;1.50;;;;;;;;5048140;28;8815;-74
2023/03/11 04:06:17;;;;;;;;;3.00;2.00;;;;;;;;5034114;28;8997;-74
2023/03/11 04:08:42;;;;;;;;;1.75;1.00;;;;;;;;5032703;28;8784;-74
2023/03/11 04:11:07;;;;;;;;;9.00;1.00;;;;;;;;5029800;28;11618;-75
2023/03/11 04:13:33;;;;;;;;;3.00;1.00;;;;;;;;5029755;28;8858;-75
2023/03/11 04:15:58;;;;;;;;;12.00;2.50;;;;;;;;5029393;28;8922;-74
2023/03/11 04:18:23;;;;;;;;;1.50;0.00;;;;;;;;5029185;28;8791;-74
2023/03/11 04:20:49;;;;;;;;;3.00;1.00;;;;;;;;5029223;28;9540;-74
2023/03/11 04:23:14;;;;;;;;;5.50;1.75;;;;;;;;5029364;28;8958;-74
2023/03/11 04:25:40;;;;;;;;;7.00;1.25;;;;;;;;5044469;28;8824;-74
2023/03/11 04:28:05;;;;;;;;;5.50;2.00;;;;;;;;5044082;28;8824;-74
2023/03/11 04:30:30;;;;;;;;;3.00;1.00;;;;;;;;5028730;28;8824;-73
2023/03/11 04:32:56;;;;;;;;;5.75;2.00;;;;;;;;5028854;28;8815;-75
2023/03/11 04:35:21;;;;;;;;;10.50;1.00;;;;;;;;5028858;28;8812;-73
2023/03/11 04:37:46;;;;;;;;;6.00;3.00;;;;;;;;5030148;28;8796;-73
2023/03/11 04:40:11;;;;;;;;;3.00;1.50;;;;;;;;5048023;28;8930;-73
2023/03/11 04:42:38;;;;;;;;;2.00;1.00;;;;;;;;5032688;28;8808;-74
2023/03/11 04:45:03;;;;;;;;;5.00;2.00;;;;;;;;5032595;28;8791;-74
2023/03/11 04:47:29;;;;;;;;;2.25;0.00;;;;;;;;5032538;28;11503;-74
2023/03/11 04:49:55;;;;;;;;;3.50;1.50;;;;;;;;5031208;28;9065;-73
2023/03/11 04:52:20;;;;;;;;;1.25;0.50;;;;;;;;5032814;28;8826;-74
2023/03/11 04:54:45;;;;;;;;;1.50;1.50;;;;;;;;5032537;28;8861;-73
2023/03/11 04:57:11;;;;;;;;;4.50;2.00;;;;;;;;5032362;28;8838;-73
2023/03/11 04:59:36;;;;;;;;;1.00;1.00;;;;;;;;5032355;28;8804;-73
2023/03/11 05:02:01;;;;;;;;;4.75;1.75;;;;;;;;5032192;28;8899;-74
2023/03/11 05:04:27;;;;;;;;;2.50;1.50;;;;;;;;5031918;28;8831;-73
2023/03/11 05:06:52;;;;;;;;;4.50;1.00;;;;;;;;5031909;28;8792;-72
2023/03/11 05:09:17;;;;;;;;;3.00;3.00;;;;;;;;5031797;28;8877;-73
2023/03/11 05:11:42;;;;;;;;;3.50;2.00;;;;;;;;5029498;28;8858;-73
2023/03/11 05:14:08;;;;;;;;;2.75;2.75;;;;;;;;5012216;28;8790;-74
2023/03/11 05:16:33;;;;;;;;;6.50;1.75;;;;;;;;5012439;28;8822;-75
2023/03/11 05:18:58;;;;;;;;;6.00;1.75;;;;;;;;5019317;28;8810;-74
2023/03/11 05:21:23;;;;;;;;;7.50;2.25;;;;;;;;5012801;28;8813;-75
2023/03/11 05:23:49;;;;;;;;;3.00;1.50;;;;;;;;5012105;28;8806;-74
2023/03/11 05:26:14;;;;;;;;;4.75;2.00;;;;;;;;5011817;28;8806;-74
2023/03/11 05:28:39;;;;;;;;;5.00;1.00;;;;;;;;5011871;28;9525;-74
2023/03/11 05:31:08;;;;;;;;;2.50;1.50;;;;;;;;5010560;28;8842;-74
2023/03/11 05:33:34;;;;;;;;;2.25;1.00;;;;;;;;5012093;28;8836;-75
2023/03/11 05:36:07;;;;;;;;;5.00;1.00;;;;;;;;5011947;28;11466;-75
2023/03/11 05:38:33;;;;;;;;;2.50;1.75;;;;;;;;5010405;28;8806;-75
2023/03/11 05:40:59;;;;;;;;;5.25;1.00;;;;;;;;5010198;28;11616;-74
2023/03/11 05:43:24;;;;;;;;;3.00;2.50;;;;;;;;5011474;28;11610;-75
2023/03/11 05:45:49;;;;;;;;;5.00;1.50;;;;;;;;5011621;28;8787;-73
2023/03/11 05:48:14;;;;;;;;;5.00;2.00;;;;;;;;5011486;28;8794;-74
2023/03/11 05:50:40;;;;;;;;;9.25;2.75;;;;;;;;5011353;28;8845;-74
2023/03/11 05:53:05;;;;;;;;;2.00;1.00;;;;;;;;5011276;28;8967;-74
2023/03/11 05:55:30;;;;;;;;;2.00;1.00;;;;;;;;5009899;28;8830;-74
2023/03/11 05:57:55;;;;;;;;;5.00;1.00;;;;;;;;5009794;28;8812;-74
2023/03/11 06:00:21;;;;;;;;;2.75;1.00;;;;;;;;5010970;28;8975;-74
2023/03/11 09:56:47;;;;;;;;;11.50;6.50;;;;;;;;5103564;27;13981;-74
2023/03/11 09:59:16;;;;;;;;;16.25;9.50;;;;;;;;5096118;28;11493;-74
2023/03/11 10:01:43;;;;;;;;;7.25;5.00;;;;;;;;5099082;28;11654;-74
2023/03/11 10:04:21;;;;;;;;;6.25;3.50;;;;;;;;5101482;28;11585;-72
2023/03/11 10:06:47;;;;;;;;;6.75;3.75;;;;;;;;5086124;28;11405;-71
2023/03/11 10:09:12;;;;;;;;;5.00;3.75;;;;;;;;5086668;28;11416;-71
2023/03/11 16:08:48;;;;;;;;;8.00;8.00;;;;;;;;5103149;27;13478;-71
2023/03/11 16:11:14;;;;;;;;;25.33;23.33;;;;;;;;5102150;28;13431;-73
2023/03/11 16:13:39;;;;;;;;;49.25;40.50;;;;;;;;5099927;28;14409;-73
2023/03/11 16:16:05;;;;;;;;;74.00;59.00;;;;;;;;5102719;28;13622;-72
2023/03/11 16:18:31;;;;;;;;;;;;;;;;;;5108048;28;8841;-76
2023/03/11 16:20:56;;;;;;;;;17.75;15.25;;;;;;;;5105138;28;8807;-74
2023/03/11 16:23:23;;;;;;;;;21.00;19.25;;;;;;;;5102525;28;14180;-76
2023/03/11 16:25:50;;;;;;;;;9.80;8.40;;;;;;;;5084621;28;13973;-75
2023/03/11 16:28:16;;;;;;;;;8.25;7.75;;;;;;;;5042171;27;13509;-71
2023/03/11 16:30:42;;;;;;;;;15.50;11.75;;;;;;;;5061682;28;13474;-72
2023/03/11 16:33:07;;;;;;;;;8.25;8.25;;;;;;;;5060446;28;13676;-73
2023/03/11 16:35:33;;;;;;;;;11.00;10.50;;;;;;;;5060628;28;14101;-72
2023/03/11 16:37:58;;;;;;;;;30.00;24.00;;;;;;;;5060611;28;13550;-73
2023/03/11 16:40:25;;;;;;;;;38.50;34.50;;;;;;;;5060443;28;13680;-70
2023/03/11 16:42:54;;;;;;;;;66.50;53.00;;;;;;;;5060254;28;13698;-71
2023/03/11 16:45:19;;;;;;;;;54.50;42.75;;;;;;;;5059369;28;13642;-71
2023/03/11 16:47:45;;;;;;;;;31.00;27.50;;;;;;;;5061807;28;13601;-72
2023/03/11 16:50:11;;;;;;;;;27.33;20.00;;;;;;;;5061949;28;13650;-72
2023/03/11 16:52:39;;;;;;;;;;;;;;;;;;5068020;28;8951;-74
2023/03/11 16:55:04;;;;;;;;;8.75;5.25;;;;;;;;5065570;28;8793;-74
2023/03/11 16:57:29;;;;;;;;;15.00;13.00;;;;;;;;5055294;28;13557;-73
2023/03/11 16:59:55;;;;;;;;;12.00;9.25;;;;;;;;4995379;28;14172;-72
2023/03/11 17:02:20;;;;;;;;;50.00;42.00;;;;;;;;5061496;28;13559;-73
2023/03/11 17:04:51;;;;;;;;;49.00;41.00;;;;;;;;5061477;28;13659;-72
2023/03/11 17:07:16;;;;;;;;;41.50;39.00;;;;;;;;5061824;28;14379;-72
2023/03/11 17:09:42;;;;;;;;;28.50;27.50;;;;;;;;5010982;28;13589;-69
2023/03/11 17:12:12;;;;;;;;;30.50;22.25;;;;;;;;5012931;28;13605;-72
2023/03/11 17:14:37;;;;;;;;;21.67;19.33;;;;;;;;5041578;28;13608;-69
2023/03/11 17:17:02;;;;;;;;;24.50;22.25;;;;;;;;5041261;28;13569;-70
2023/03/11 17:19:29;;;;;;;;;18.50;14.50;;;;;;;;5030871;28;13562;-70
2023/03/11 17:21:54;;;;;;;;;18.50;15.25;;;;;;;;5013452;28;13977;-70
2023/03/11 17:24:20;;;;;;;;;14.67;13.00;;;;;;;;5008701;28;13590;-70
2023/03/11 17:26:45;;;;;;;;;19.00;10.75;;;;;;;;5008228;28;13574;-70
2023/03/11 17:29:10;;;;;;;;;16.75;13.25;;;;;;;;5007228;28;13827;-70
2023/03/11 17:31:35;;;;;;;;;10.33;9.00;;;;;;;;5007987;28;13558;-70
2023/03/11 17:34:01;;;;;;;;;17.00;12.00;;;;;;;;5004343;28;13738;-71
2023/03/11 17:36:27;;;;;;;;;14.80;10.80;;;;;;;;4988382;28;13614;-71
2023/03/11 17:38:52;;;;;;;;;11.75;10.25;;;;;;;;4988290;28;14588;-71
2023/03/11 17:41:18;;;;;;;;;12.25;7.75;;;;;;;;5008770;28;13578;-70
2023/03/11 17:43:44;;;;;;;;;10.75;9.00;;;;;;;;5008610;28;13629;-69
2023/03/11 17:46:13;;;;;;;;;13.00;10.00;;;;;;;;5008355;28;13744;-68
2023/03/11 17:48:38;;;;;;;;;15.50;13.50;;;;;;;;5006015;28;13682;-70
2023/03/11 17:51:05;;;;;;;;;9.75;9.25;;;;;;;;4992099;28;13774;-68
2023/03/11 17:53:30;;;;;;;;;17.50;14.75;;;;;;;;4990154;28;14413;-69
2023/03/11 17:55:57;;;;;;;;;17.00;14.67;;;;;;;;5006480;28;13613;-68
2023/03/11 17:58:22;;;;;;;;;20.00;12.80;;;;;;;;4954414;28;13782;-68
2023/03/11 18:00:47;;;;;;;;;19.67;14.33;;;;;;;;5005277;28;13597;-68
2023/03/11 18:03:13;;;;;;;;;23.00;19.00;;;;;;;;5007820;28;13683;-69
2023/03/11 18:05:38;;;;;;;;;13.50;9.00;;;;;;;;4990501;28;13693;-70
2023/03/11 18:08:03;;;;;;;;;11.50;10.00;;;;;;;;4991539;28;8868;-69
2023/03/11 18:10:29;;;;;;;;;14.75;8.00;;;;;;;;5001722;28;13597;-70
2023/03/11 18:12:54;;;;;;;;;12.50;9.00;;;;;;;;5007892;28;13524;-69
2023/03/11 18:15:21;;;;;;;;;12.00;10.00;;;;;;;;5009622;28;8811;-70
2023/03/11 18:17:46;;;;;;;;;;;;;;;;;;5013443;28;8928;-70
2023/03/11 18:20:12;;;;;;;;;10.20;10.20;;;;;;;;5008712;28;8956;-71
2023/03/11 18:22:37;;;;;;;;;;;;;;;;;;5013488;28;8900;-70
2023/03/11 18:25:03;;;;;;;;;10.20;9.80;;;;;;;;5011151;28;8845;-70
2023/03/11 18:27:28;;;;;;;;;11.50;10.50;;;;;;;;5005053;28;13798;-71
2023/03/11 18:29:54;;;;;;;;;16.00;9.25;;;;;;;;4996508;28;13572;-70
2023/03/11 18:32:19;;;;;;;;;11.75;10.00;;;;;;;;5010416;28;8952;-71
2023/03/11 18:34:44;;;;;;;;;;;;;;;;;;5003266;28;8825;-70
2023/03/11 18:37:10;;;;;;;;;51.00;39.25;;;;;;;;4990782;28;8828;-71
2023/03/11 18:39:35;;;;;;;;;83.67;62.67;;;;;;;;5012327;28;8873;-70
2023/03/11 18:42:01;;;;;;;;;13.75;13.75;;;;;;;;5010979;28;8818;-71
2023/03/11 18:44:27;;;;;;;;;12.50;9.75;;;;;;;;5010998;28;8798;-71
2023/03/11 18:46:52;;;;;;;;;17.50;10.00;;;;;;;;5006997;28;13544;-69
2023/03/11 18:49:17;;;;;;;;;14.50;10.25;;;;;;;;5008067;28;8830;-69
2023/03/11 18:51:42;;;;;;;;;10.50;6.75;;;;;;;;5008699;28;8818;-69
2023/03/11 18:54:08;;;;;;;;;11.50;10.50;;;;;;;;5007388;28;13519;-69
2023/03/11 18:56:34;;;;;;;;;23.25;14.75;;;;;;;;5010333;28;8803;-70
2023/03/11 18:58:59;;;;;;;;;19.25;13.25;;;;;;;;5004224;28;13685;-70
2023/03/11 19:01:26;;;;;;;;;14.25;11.50;;;;;;;;5006592;28;13584;-69
2023/03/11 19:03:53;;;;;;;;;9.40;8.80;;;;;;;;5001987;28;13738;-69
2023/03/11 19:06:18;;;;;;;;;;;;;;;;;;4990022;28;8820;-72
2023/03/11 19:08:43;;;;;;;;;19.25;9.25;;;;;;;;4988605;28;8895;-71
2023/03/11 19:11:08;;;;;;;;;;;;;;;;;;5011834;28;8818;-70
2023/03/11 19:13:37;;;;;;;;;11.80;8.80;;;;;;;;5007819;28;8849;-70
2023/03/11 19:16:03;;;;;;;;;16.80;12.80;;;;;;;;5003054;28;13589;-70
2023/03/11 19:18:28;;;;;;;;;9.75;7.00;;;;;;;;5009201;28;10082;-69
2023/03/11 19:20:54;;;;;;;;;18.25;12.75;;;;;;;;5000018;28;13461;-70
2023/03/11 19:23:20;;;;;;;;;16.00;10.00;;;;;;;;5003770;28;14272;-70
2023/03/11 19:25:45;;;;;;;;;63.25;49.75;;;;;;;;5003699;28;13561;-70
2023/03/11 19:28:10;;;;;;;;;11.25;5.75;;;;;;;;5008270;28;8838;-71
2023/03/11 19:30:36;;;;;;;;;21.25;19.25;;;;;;;;5003503;28;13535;-73
2023/03/11 19:33:01;;;;;;;;;18.75;13.25;;;;;;;;5003069;28;13584;-74
2023/03/11 19:35:26;;;;;;;;;15.50;9.00;;;;;;;;5007696;28;8853;-73
2023/03/11 19:37:53;;;;;;;;;14.75;11.00;;;;;;;;5009247;28;8790;-73
2023/03/11 19:40:18;;;;;;;;;18.25;15.50;;;;;;;;5003352;28;13609;-73
2023/03/11 19:42:43;;;;;;;;;;;;;;;;;;5011942;28;8825;-74
2023/03/11 19:45:14;;;;;;;;;17.25;13.25;;;;;;;;5009478;28;8936;-75
2023/03/11 19:47:40;;;;;;;;;17.00;15.75;;;;;;;;5004176;28;13653;-71
2023/03/11 19:50:05;;;;;;;;;19.00;15.50;;;;;;;;5003128;28;13594;-71
2023/03/11 19:52:30;;;;;;;;;;;;;;;;;;5011840;28;8973;-71
2023/03/11 19:54:55;;;;;;;;;11.60;10.00;;;;;;;;5004088;28;8791;-71
2023/03/11 19:57:21;;;;;;;;;12.25;9.00;;;;;;;;4994495;28;13538;-70
2023/03/11 19:59:46;;;;;;;;;13.75;11.75;;;;;;;;5001023;28;14214;-73
2023/03/11 20:02:12;;;;;;;;;17.33;16.00;;;;;;;;4985847;28;13638;-71
2023/03/11 20:04:37;;;;;;;;;10.50;9.00;;;;;;;;5002505;28;13664;-76
2023/03/11 20:07:02;;;;;;;;;19.50;12.00;;;;;;;;5003886;28;13685;-75
2023/03/11 20:09:27;;;;;;;;;;;;;;;;;;5009057;28;8858;-74
2023/03/11 20:11:53;;;;;;;;;11.80;11.00;;;;;;;;5005943;28;8825;-70
2023/03/11 20:14:18;;;;;;;;;15.25;12.25;;;;;;;;5007982;28;9530;-71
2023/03/11 20:16:43;;;;;;;;;;;;;;;;;;5011284;28;8802;-71
2023/03/11 20:19:08;;;;;;;;;13.40;11.80;;;;;;;;5006145;28;8923;-73
2023/03/11 20:21:38;;;;;;;;;16.50;10.50;;;;;;;;5007928;28;9016;-73
2023/03/11 20:24:03;;;;;;;;;18.50;15.75;;;;;;;;5002792;28;9650;-84
2023/03/11 20:26:28;;;;;;;;;14.50;14.00;;;;;;;;5006275;28;13733;-76
2023/03/11 20:28:53;;;;;;;;;;;;;;;;;;5010478;28;9618;-75
2023/03/11 20:31:20;;;;;;;;;19.20;11.20;;;;;;;;5009427;28;8842;-73
2023/03/11 20:33:47;;;;;;;;;14.50;9.75;;;;;;;;5009016;28;8822;-75
2023/03/11 20:36:14;;;;;;;;;19.40;17.40;;;;;;;;5004010;28;14531;-75
2023/03/11 20:38:39;;;;;;;;;;;;;;;;;;5011997;28;8822;-76
2023/03/11 20:41:06;;;;;;;;;18.00;14.25;;;;;;;;5008201;28;8924;-77
2023/03/11 20:43:32;;;;;;;;;22.00;14.50;;;;;;;;4991778;28;8948;-77
2023/03/11 20:45:58;;;;;;;;;19.50;12.50;;;;;;;;5009532;28;11661;-80
2023/03/11 20:48:23;;;;;;;;;12.50;11.75;;;;;;;;5009093;28;8955;-81
2023/03/11 20:50:48;;;;;;;;;16.50;10.00;;;;;;;;5009845;28;8818;-80
2023/03/11 20:53:15;;;;;;;;;14.25;10.00;;;;;;;;5002478;28;8816;-81
2023/03/11 20:55:40;;;;;;;;;11.25;10.00;;;;;;;;4994978;28;8840;-79
2023/03/11 20:58:08;;;;;;;;;12.00;5.50;;;;;;;;5011567;28;11461;-78
2023/03/11 21:00:33;;;;;;;;;15.50;13.25;;;;;;;;5008267;28;13642;-78
2023/03/11 21:02:58;;;;;;;;;20.00;13.25;;;;;;;;5006453;28;13694;-78
2023/03/11 21:05:24;;;;;;;;;12.75;10.00;;;;;;;;5010943;28;8783;-75
2023/03/11 21:07:49;;;;;;;;;25.25;18.50;;;;;;;;5007429;28;14428;-77
2023/03/11 21:10:15;;;;;;;;;16.50;12.00;;;;;;;;5011864;28;8818;-78
2023/03/11 21:12:40;;;;;;;;;;;;;;;;;;5012905;28;8834;-78
2023/03/11 21:15:09;;;;;;;;;16.80;14.40;;;;;;;;5011633;28;8895;-77
2023/03/11 21:17:34;;;;;;;;;;;;;;;;;;5013848;28;8915;-77
2023/03/11 21:20:00;;;;;;;;;17.00;13.00;;;;;;;;5011588;28;8818;-76
2023/03/11 21:22:25;;;;;;;;;;;;;;;;;;5013700;28;8824;-78
2023/03/11 21:24:50;;;;;;;;;;;;;;;;;;5012617;28;8826;-77
2023/03/11 21:27:15;;;;;;;;;;;;;;;;;;5013819;28;8830;-77
2023/03/11 21:29:42;;;;;;;;;16.25;16.00;;;;;;;;5011772;28;8973;-83
2023/03/11 21:32:08;;;;;;;;;22.50;18.75;;;;;;;;5008940;28;13623;-83
2023/03/11 21:34:33;;;;;;;;;;;;;;;;;;5013389;28;11585;-77
2023/03/11 21:36:58;;;;;;;;;28.80;24.00;;;;;;;;5016115;28;8817;-78
2023/03/11 21:39:23;;;;;;;;;;;;;;;;;;5016600;28;8829;-75
2023/03/11 21:41:51;;;;;;;;;25.75;23.75;;;;;;;;5012091;28;8923;-75
2023/03/11 21:44:17;;;;;;;;;34.50;26.25;;;;;;;;5008437;28;13597;-77
2023/03/11 21:46:42;;;;;;;;;28.25;20.00;;;;;;;;5012048;28;11590;-77
2023/03/11 21:49:07;;;;;;;;;27.50;25.75;;;;;;;;5005974;28;13684;-77
2023/03/11 21:51:33;;;;;;;;;29.50;26.50;;;;;;;;5008887;28;13582;-79
2023/03/11 21:53:58;;;;;;;;;31.25;27.25;;;;;;;;5005479;28;13662;-76
2023/03/11 21:56:23;;;;;;;;;34.75;30.00;;;;;;;;5011352;28;9022;-78
2023/03/11 21:58:48;;;;;;;;;28.00;25.25;;;;;;;;5011207;28;9554;-77
2023/03/11 22:01:14;;;;;;;;;33.00;28.00;;;;;;;;5007225;28;13648;-78
2023/03/11 22:03:39;;;;;;;;;;;;;;;;;;5010807;28;8884;-79
2023/03/11 22:06:06;;;;;;;;;28.50;26.25;;;;;;;;5010867;28;8806;-79
2023/03/11 22:08:32;;;;;;;;;32.50;30.75;;;;;;;;5005614;28;13726;-76
2023/03/11 22:10:57;;;;;;;;;40.50;30.25;;;;;;;;5008320;28;13630;-76
2023/03/11 22:13:23;;;;;;;;;34.75;33.00;;;;;;;;5008637;28;13741;-75
2023/03/11 22:15:48;;;;;;;;;;;;;;;;;;5013091;28;8818;-76
2023/03/11 22:18:13;;;;;;;;;33.80;29.80;;;;;;;;5011453;28;8806;-76
2023/03/11 22:20:38;;;;;;;;;;;;;;;;;;5013701;28;8814;-76
2023/03/11 22:23:03;;;;;;;;;32.60;32.00;;;;;;;;5009990;28;8848;-76
2023/03/11 22:25:28;;;;;;;;;;;;;;;;;;5014503;28;9548;-76
2023/03/11 22:27:55;;;;;;;;;24.20;22.80;;;;;;;;5011357;28;8838;-76
2023/03/11 22:30:23;;;;;;;;;28.25;25.25;;;;;;;;5011161;28;8818;-75
2023/03/11 22:32:48;;;;;;;;;;;;;;;;;;5013757;28;12442;-75
2023/03/11 22:35:17;;;;;;;;;;;;;;;;;;5014105;28;9560;-83
2023/03/11 22:37:42;;;;;;;;;;;;;;;;;;5011895;28;8850;-76
2023/03/11 22:40:07;;;;;;;;;;;;;;;;;;5013542;28;8799;-74
2023/03/11 22:42:33;;;;;;;;;21.50;16.50;;;;;;;;5010674;28;8810;-73
2023/03/11 22:44:58;;;;;;;;;21.00;20.50;;;;;;;;5006717;28;13603;-74
2023/03/11 22:47:23;;;;;;;;;25.67;23.00;;;;;;;;5005536;28;13611;-73
2023/03/11 22:49:49;;;;;;;;;26.33;20.33;;;;;;;;5006489;28;13630;-74
2023/03/11 22:52:14;;;;;;;;;21.00;19.25;;;;;;;;5006590;28;14700;-74
2023/03/11 22:54:40;;;;;;;;;;;;;;;;;;5012968;28;8866;-74
2023/03/11 22:57:05;;;;;;;;;;;;;;;;;;5012907;28;8815;-74
2023/03/11 22:59:30;;;;;;;;;;;;;;;;;;5012914;28;8807;-74
2023/03/11 23:01:55;;;;;;;;;21.00;15.00;;;;;;;;5010424;28;8822;-75
2023/03/11 23:04:20;;;;;;;;;28.25;24.75;;;;;;;;5006727;28;14367;-73
2023/03/11 23:06:46;;;;;;;;;17.50;15.75;;;;;;;;5001762;28;8846;-71
2023/03/11 23:09:11;;;;;;;;;;;;;;;;;;5008085;28;8926;-74
2023/03/11 23:11:36;;;;;;;;;21.00;16.25;;;;;;;;4990900;28;8808;-73
2023/03/11 23:14:01;;;;;;;;;;;;;;;;;;4992755;28;8793;-74
2023/03/11 23:16:27;;;;;;;;;23.60;19.40;;;;;;;;4989955;28;8823;-73
2023/03/11 23:18:52;;;;;;;;;;;;;;;;;;4993447;28;9075;-73
2023/03/11 23:21:19;;;;;;;;;22.00;19.50;;;;;;;;4989805;28;8805;-75
2023/03/11 23:23:44;;;;;;;;;;;;;;;;;;4991531;28;8817;-75
2023/03/11 23:26:10;;;;;;;;;25.60;24.00;;;;;;;;4988516;28;8819;-75
2023/03/11 23:28:35;;;;;;;;;17.50;15.25;;;;;;;;4986964;28;8832;-74
2023/03/11 23:31:03;;;;;;;;;33.25;28.25;;;;;;;;4985046;28;14445;-73
2023/03/11 23:33:28;;;;;;;;;17.00;15.00;;;;;;;;4988453;28;8808;-75
2023/03/11 23:35:53;;;;;;;;;17.00;17.00;;;;;;;;4988312;28;12301;-73
2023/03/11 23:38:19;;;;;;;;;23.75;21.00;;;;;;;;4986321;28;13645;-74
2023/03/11 23:40:44;;;;;;;;;24.67;23.67;;;;;;;;5001676;28;13621;-74
2023/03/11 23:43:09;;;;;;;;;23.75;17.25;;;;;;;;4987007;28;13662;-74
2023/03/11 23:45:34;;;;;;;;;;;;;;;;;;4991366;28;9548;-74
2023/03/11 23:47:59;;;;;;;;;20.20;14.40;;;;;;;;4989340;28;8828;-73
2023/03/11 23:50:25;;;;;;;;;;;;;;;;;;4992726;28;8816;-73
2023/03/11 23:52:50;;;;;;;;;20.60;16.00;;;;;;;;4990158;28;8832;-74
2023/03/11 23:55:15;;;;;;;;;;;;;;;;;;4992927;28;8809;-74
2023/03/11 23:57:40;;;;;;;;;13.00;13.00;;;;;;;;4991043;28;8801;-74
